Forside
METAR-TAF:

METAR-TAF

Lufthavne :

Pontiac Municipal Airport

Pontiac, Illinois, USA

Breddekreds: 40-55-25N, længdekreds: 088-37-31W, højde: 201 m

Aktuelle vejr

Denne rapport blev lavet for 22 minutter siden, kl. 11:55 UTC
Vind 20 kt fra sydøst med vindstød på up til 26 kt
Temperatur -7°C
Fugtighed 73%
Tryk 1022 hPa
Sigt: 11.3 km
Spredte skyer i en højde af 4100 ft
Brudte skyer i en højde af 5000 ft
Brudte skyer i en højde af 7000 ft

METAR: KPNT 221155Z AUTO 14020G26KT 7SM SCT041 BKN050 BKN070 M07/M11 A3017 RMK AO2 T10731108 11073 21096

Tid: 06:17 (12:17 UTC)


TAF: fraværende

Vejrobservationer og prognoser fra mere end 4000 lufthavne (METAR og TAF).

De gule og røde prikker repræsenterer de meteorologiske stationer.

Flyt musen over at se navnet på stationen.

Så klik over at se vejr observationer og prognoser.

At skifte det kort: Klik på de grønne knapper med et sort kors for at zoome ind; på den grønne knap med en bindestreg for at zoome ud; eller på de grønne pile for tilstødende kort.


METAR-TAF: